Time;durP1;ratioP1;P1;durP2;ratioP2;P2;SDS_P1;SDS_P2;PMS_P1;PMS_P2;Temp;Humidity;BMP_temperature;BMP_pressure;BME280_temperature;BME280_humidity;BME280_pressure;Samples;Min_cycle;Max_cycle;Signal;HPM_P1;HPM_P2
2021/10/23 00:00:35;;;;;;;15.10;10.05;;;;;;;8.31;100.00;101909.75;5063000;28;20037;-63
2021/10/23 00:03:03;;;;;;;12.32;7.90;;;;;;;8.31;100.00;101911.56;5066103;28;20052;-63
2021/10/23 00:05:32;;;;;;;16.35;9.20;;;;;;;8.24;100.00;101912.06;5047479;28;20047;-63
2021/10/23 00:08:00;;;;;;;14.52;9.13;;;;;;;8.25;100.00;101916.41;5064087;28;20041;-63
2021/10/23 00:10:29;;;;;;;15.05;8.63;;;;;;;8.28;100.00;101915.34;5065729;28;20068;-63
2021/10/23 00:12:57;;;;;;;14.45;9.02;;;;;;;8.29;100.00;101922.34;5065450;28;20295;-63
2021/10/23 00:15:25;;;;;;;17.88;8.75;;;;;;;8.25;100.00;101927.06;5065148;28;20041;-63
2021/10/23 00:17:53;;;;;;;15.68;8.57;;;;;;;8.24;100.00;101925.38;5064854;28;20436;-65
2021/10/23 00:20:21;;;;;;;14.43;8.90;;;;;;;8.33;100.00;101926.44;5061390;28;20078;-63
2021/10/23 00:22:49;;;;;;;14.20;7.93;;;;;;;8.27;100.00;101919.78;5064037;28;20078;-63
2021/10/23 00:25:19;;;;;;;20.35;9.80;;;;;;;8.20;100.00;101917.75;5060977;28;20388;-63
2021/10/23 00:27:48;;;;;;;14.68;9.68;;;;;;;8.25;100.00;101910.22;5066648;28;20056;-63
2021/10/23 00:30:16;;;;;;;15.63;9.60;;;;;;;8.20;100.00;101905.28;5061227;28;20052;-63
2021/10/23 00:32:44;;;;;;;16.67;9.48;;;;;;;8.18;100.00;101904.56;5065060;28;20121;-63
2021/10/23 00:35:12;;;;;;;17.65;8.95;;;;;;;8.19;100.00;101906.25;5064327;28;20037;-63
2021/10/23 00:37:40;;;;;;;15.63;8.80;;;;;;;8.20;100.00;101902.63;5066838;28;20056;-62
2021/10/23 00:40:09;;;;;;;15.70;9.20;;;;;;;8.27;100.00;101897.66;5062081;28;20048;-62
2021/10/23 00:42:37;;;;;;;15.38;8.80;;;;;;;8.17;100.00;101902.88;5065413;28;20531;-63
2021/10/23 00:45:08;;;;;;;14.73;9.65;;;;;;;8.17;100.00;101902.88;5060458;28;20048;-62
2021/10/23 00:47:36;;;;;;;12.02;8.07;;;;;;;8.32;100.00;101899.94;5065874;28;20408;-63
2021/10/23 00:50:05;;;;;;;14.80;8.23;;;;;;;8.25;100.00;101903.13;5064290;28;20055;-63
2021/10/23 00:52:33;;;;;;;12.25;7.22;;;;;;;8.06;100.00;101905.53;5068241;28;20049;-62
2021/10/23 00:55:01;;;;;;;12.25;7.85;;;;;;;7.95;100.00;101913.50;5071450;28;20090;-62
2021/10/23 00:57:29;;;;;;;13.55;8.48;;;;;;;8.01;100.00;101919.19;5065365;28;20102;-63
2021/10/23 00:59:57;;;;;;;16.05;8.40;;;;;;;8.06;100.00;101918.81;5065430;28;20041;-63
2021/10/23 01:02:26;;;;;;;18.13;8.98;;;;;;;8.01;100.00;101929.84;5067475;28;20040;-63
2021/10/23 01:04:54;;;;;;;16.13;9.15;;;;;;;7.97;100.00;101933.69;5070940;28;20032;-63
2021/10/23 01:07:22;;;;;;;17.58;9.20;;;;;;;7.98;100.00;101939.84;5068593;28;20375;-62
2021/10/23 01:09:50;;;;;;;16.35;9.13;;;;;;;8.03;100.00;101935.88;5064040;28;20037;-63
2021/10/23 01:12:18;;;;;;;14.50;9.52;;;;;;;7.99;100.00;101936.22;5067400;28;20317;-63
2021/10/23 01:14:46;;;;;;;17.30;9.98;;;;;;;7.97;100.00;101938.16;5067095;28;20048;-63
2021/10/23 01:17:20;;;;;;;15.43;9.45;;;;;;;8.14;100.00;101939.50;5064769;28;20048;-62
2021/10/23 01:19:51;;;;;;;17.83;9.02;;;;;;;8.14;100.00;101942.16;5067501;28;20036;-63
2021/10/23 01:22:26;;;;;;;13.80;9.40;;;;;;;8.07;100.00;101936.50;5067029;28;20041;-62
2021/10/23 01:24:54;;;;;;;17.30;8.98;;;;;;;8.10;100.00;101939.75;5067662;28;20263;-63
2021/10/23 01:27:22;;;;;;;18.55;10.95;;;;;;;8.21;100.00;101936.25;5067390;28;20086;-65
2021/10/23 01:29:50;;;;;;;26.02;9.98;;;;;;;8.20;100.00;101926.56;5063357;28;20089;-65
2021/10/23 01:32:18;;;;;;;16.48;9.07;;;;;;;8.14;100.00;101929.72;5069661;28;20052;-65
2021/10/23 01:34:46;;;;;;;15.43;9.07;;;;;;;8.00;100.00;101925.47;5068636;28;20045;-65
2021/10/23 01:37:15;;;;;;;15.05;9.18;;;;;;;8.00;100.00;101933.44;5067570;28;20047;-63
2021/10/23 01:39:43;;;;;;;17.20;9.75;;;;;;;8.05;100.00;101925.09;5064798;28;20052;-64
2021/10/23 01:42:11;;;;;;;16.15;9.30;;;;;;;7.97;100.00;101924.84;5069027;28;20041;-63
2021/10/23 01:44:39;;;;;;;17.55;9.68;;;;;;;8.08;100.00;101924.84;5067311;28;20045;-62
2021/10/23 01:47:07;;;;;;;19.00;10.20;;;;;;;8.20;100.00;101933.72;5067071;28;20040;-64
2021/10/23 01:49:35;;;;;;;18.27;10.02;;;;;;;8.24;100.00;101930.69;5066441;28;20814;-64
2021/10/23 01:52:03;;;;;;;18.88;10.13;;;;;;;8.17;100.00;101928.63;5067077;28;20113;-65
2021/10/23 01:54:32;;;;;;;17.08;10.05;;;;;;;8.12;100.00;101926.31;5065186;28;20044;-65
2021/10/23 01:57:00;;;;;;;16.55;10.77;;;;;;;8.09;100.00;101924.75;5062797;28;20040;-64
2021/10/23 01:59:28;;;;;;;18.20;10.50;;;;;;;7.91;100.00;101915.56;5064031;28;20452;-62
2021/10/23 02:01:56;;;;;;;20.40;10.95;;;;;;;7.87;100.00;101912.28;5066868;28;20048;-63
2021/10/23 02:04:24;;;;;;;22.00;10.43;;;;;;;7.84;100.00;101915.19;5068636;28;20525;-63
2021/10/23 02:06:52;;;;;;;18.08;9.88;;;;;;;7.76;100.00;101918.41;5064735;28;20382;-63
2021/10/23 02:09:20;;;;;;;19.25;11.05;;;;;;;7.85;100.00;101910.69;5067411;28;20109;-63
2021/10/23 02:11:49;;;;;;;18.98;11.43;;;;;;;7.96;100.00;101909.88;5067358;28;20432;-65
2021/10/23 02:14:17;;;;;;;27.30;14.43;;;;;;;7.98;100.00;101906.13;5066177;28;20459;-65
2021/10/23 02:16:45;;;;;;;19.60;10.25;;;;;;;7.85;100.00;101908.03;5068524;28;20055;-65
2021/10/23 02:19:14;;;;;;;19.15;10.35;;;;;;;7.89;100.00;101904.19;5065634;28;20040;-65
2021/10/23 02:21:42;;;;;;;19.73;11.32;;;;;;;7.92;100.00;101895.94;5068310;28;20044;-64
2021/10/23 02:24:10;;;;;;;20.35;11.98;;;;;;;7.93;100.00;101889.69;5068175;28;20044;-64
2021/10/23 02:26:38;;;;;;;21.13;11.27;;;;;;;7.87;100.00;101885.69;5066191;28;20094;-64
2021/10/23 02:29:08;;;;;;;27.77;16.08;;;;;;;7.80;100.00;101884.47;5065888;28;20033;-65
2021/10/23 02:31:36;;;;;;;20.98;12.23;;;;;;;7.63;100.00;101895.56;5063722;28;20063;-65
2021/10/23 02:34:04;;;;;;;19.17;12.48;;;;;;;7.47;100.00;101891.41;5066025;28;20052;-64
2021/10/23 02:36:33;;;;;;;20.80;12.63;;;;;;;7.31;100.00;101883.72;5066820;28;20048;-65
2021/10/23 02:39:01;;;;;;;25.08;13.77;;;;;;;7.20;100.00;101889.88;5066043;28;20333;-65
2021/10/23 02:41:30;;;;;;;27.10;13.57;;;;;;;7.23;100.00;101880.81;5065365;28;20452;-65
2021/10/23 02:43:59;;;;;;;29.23;13.18;;;;;;;7.16;100.00;101885.75;5064716;28;20048;-62
2021/10/23 02:46:28;;;;;;;22.13;12.85;;;;;;;7.20;100.00;101886.34;5066875;28;20447;-64
2021/10/23 02:48:56;;;;;;;25.02;13.27;;;;;;;7.20;100.00;101881.91;5065095;28;20041;-64
2021/10/23 02:51:25;;;;;;;23.13;12.82;;;;;;;7.36;100.00;101883.41;5063253;28;20049;-65
2021/10/23 02:53:53;;;;;;;27.02;15.23;;;;;;;7.38;100.00;101868.19;5065803;28;20227;-65
2021/10/23 02:56:21;;;;;;;28.90;13.43;;;;;;;7.28;100.00;101873.34;5068073;28;20074;-64
2021/10/23 02:58:49;;;;;;;28.25;15.00;;;;;;;7.06;100.00;101874.97;5064409;28;20044;-65
2021/10/23 03:01:17;;;;;;;29.52;14.77;;;;;;;6.91;100.00;101875.25;5063394;28;20440;-65
2021/10/23 03:03:48;;;;;;;25.08;13.75;;;;;;;6.91;100.00;101883.22;5066153;28;20151;-65
2021/10/23 03:06:18;;;;;;;30.67;14.02;;;;;;;6.88;100.00;101882.47;5065496;28;20060;-65
2021/10/23 03:08:46;;;;;;;37.60;16.05;;;;;;;6.94;100.00;101881.16;5066236;28;20056;-64
2021/10/23 03:11:14;;;;;;;30.33;16.40;;;;;;;6.83;100.00;101889.94;5061959;28;20043;-64
2021/10/23 03:13:42;;;;;;;28.15;15.95;;;;;;;6.86;100.00;101878.22;5062583;28;20032;-65
2021/10/23 03:16:11;;;;;;;29.35;14.95;;;;;;;7.00;100.00;101893.16;5069643;28;20051;-65
2021/10/23 03:18:39;;;;;;;30.35;15.20;;;;;;;7.08;100.00;101893.44;5066226;28;20044;-64
2021/10/23 03:21:08;;;;;;;31.42;16.80;;;;;;;6.97;100.00;101894.22;5067658;28;20475;-65
2021/10/23 03:23:36;;;;;;;29.65;16.15;;;;;;;7.01;100.00;101892.19;5061913;28;20036;-65
2021/10/23 03:26:04;;;;;;;30.65;16.25;;;;;;;7.03;100.00;101892.91;5066927;28;20338;-65
2021/10/23 03:28:32;;;;;;;36.10;16.75;;;;;;;7.08;100.00;101888.13;5064529;28;20040;-64
2021/10/23 03:31:01;;;;;;;31.88;16.52;;;;;;;7.08;100.00;101893.44;5062937;28;20040;-65
2021/10/23 03:33:29;;;;;;;32.03;16.60;;;;;;;7.13;100.00;101893.94;5065619;28;20095;-64
2021/10/23 03:35:57;;;;;;;27.45;15.15;;;;;;;7.28;100.00;101899.06;5066675;28;20495;-65
2021/10/23 03:38:26;;;;;;;27.13;15.15;;;;;;;7.36;100.00;101902.00;5065353;28;20044;-65
2021/10/23 03:40:54;;;;;;;34.25;16.00;;;;;;;7.44;100.00;101902.25;5062638;28;20074;-64
2021/10/23 03:43:22;;;;;;;28.17;15.75;;;;;;;7.24;100.00;101903.75;5059383;28;20036;-65
2021/10/23 03:45:50;;;;;;;29.33;15.93;;;;;;;7.11;100.00;101901.16;5066164;28;20112;-65
2021/10/23 03:48:20;;;;;;;32.35;16.05;;;;;;;7.09;100.00;101899.59;5063389;28;20043;-65
2021/10/23 03:50:48;;;;;;;30.05;15.77;;;;;;;7.13;100.00;101901.91;5062679;28;20032;-65
2021/10/23 03:53:16;;;;;;;30.23;15.68;;;;;;;7.02;100.00;101901.88;5063969;28;20040;-64
2021/10/23 03:55:45;;;;;;;29.08;15.93;;;;;;;6.98;100.00;101908.34;5065822;28;20364;-65
2021/10/23 03:58:13;;;;;;;27.10;15.27;;;;;;;7.01;100.00;101918.75;5065696;28;20097;-65
2021/10/23 04:00:41;;;;;;;30.90;15.65;;;;;;;7.04;100.00;101924.66;5063811;28;20052;-65
2021/10/23 04:03:09;;;;;;;26.80;15.13;;;;;;;7.26;100.00;101922.25;5063620;28;20373;-64
2021/10/23 04:05:37;;;;;;;32.15;16.52;;;;;;;7.13;100.00;101931.13;5064036;28;20097;-65
2021/10/23 04:08:06;;;;;;;32.05;15.27;;;;;;;6.99;100.00;101934.81;5064807;28;20044;-64
2021/10/23 04:10:34;;;;;;;31.15;15.65;;;;;;;7.13;100.00;101936.44;5062000;28;20047;-65
2021/10/23 04:13:03;;;;;;;29.58;15.25;;;;;;;6.96;100.00;101934.16;5066407;28;20047;-64
2021/10/23 04:15:32;;;;;;;30.60;15.02;;;;;;;6.93;100.00;101943.19;5061839;28;20320;-65
2021/10/23 04:18:01;;;;;;;36.45;16.83;;;;;;;6.92;100.00;101932.69;5065748;28;20329;-65
2021/10/23 04:20:30;;;;;;;33.70;16.42;;;;;;;6.85;100.00;101934.97;5066543;28;20090;-65
2021/10/23 04:22:58;;;;;;;35.08;16.35;;;;;;;6.82;100.00;101936.03;5067173;28;20036;-65
2021/10/23 04:25:25;;;;;;;35.25;16.20;;;;;;;7.14;100.00;101927.50;5066649;28;20052;-65
2021/10/23 04:27:53;;;;;;;36.30;17.23;;;;;;;7.10;100.00;101939.31;5064928;28;20367;-63
2021/10/23 04:30:22;;;;;;;33.53;16.17;;;;;;;7.01;100.00;101942.66;5067575;28;20041;-63
2021/10/23 04:32:50;;;;;;;38.67;16.23;;;;;;;7.15;100.00;101939.84;5068463;28;20352;-65
2021/10/23 04:35:18;;;;;;;39.35;17.85;;;;;;;7.18;100.00;101952.88;5068840;28;20037;-63
2021/10/23 04:37:46;;;;;;;31.98;17.23;;;;;;;7.16;100.00;101952.16;5066069;28;20090;-63
2021/10/23 04:40:17;;;;;;;42.38;18.88;;;;;;;7.39;100.00;101952.25;5069041;28;20340;-63
2021/10/23 04:42:45;;;;;;;42.55;18.90;;;;;;;7.37;100.00;101947.06;5065741;28;20475;-64
2021/10/23 04:45:13;;;;;;;40.45;17.52;;;;;;;7.43;100.00;101955.53;5070501;28;20045;-65
2021/10/23 04:47:42;;;;;;;39.83;18.75;;;;;;;7.48;100.00;101951.56;5067326;28;20040;-65
2021/10/23 04:50:10;;;;;;;42.10;19.90;;;;;;;7.50;100.00;101940.81;5067682;28;20467;-65
2021/10/23 04:52:38;;;;;;;41.33;19.13;;;;;;;7.55;100.00;101960.75;5069316;28;20049;-65
2021/10/23 04:55:06;;;;;;;38.60;18.67;;;;;;;7.48;100.00;101945.41;5067535;28;20045;-64
2021/10/23 04:57:34;;;;;;;42.13;18.95;;;;;;;7.56;100.00;101951.84;5067212;28;20049;-64
2021/10/23 05:00:03;;;;;;;39.88;19.55;;;;;;;7.54;100.00;101948.47;5064276;28;20056;-64
2021/10/23 05:02:30;;;;;;;44.00;18.92;;;;;;;7.63;100.00;101948.75;5065465;28;20057;-65
2021/10/23 05:05:00;;;;;;;40.30;19.05;;;;;;;7.67;100.00;101950.16;5069124;28;20043;-64
2021/10/23 05:07:28;;;;;;;42.42;17.73;;;;;;;7.67;100.00;101950.16;5068875;28;20048;-63
2021/10/23 05:09:56;;;;;;;46.03;18.95;;;;;;;7.64;100.00;101958.38;5065742;28;20127;-63
2021/10/23 05:12:24;;;;;;;37.90;17.27;;;;;;;7.61;100.00;101940.84;5067959;28;20051;-63
2021/10/23 05:14:52;;;;;;;36.28;18.38;;;;;;;7.53;100.00;101951.22;5065993;28;20036;-63
2021/10/23 05:17:19;;;;;;;38.20;18.20;;;;;;;7.59;100.00;101948.09;5067998;28;20094;-62
2021/10/23 05:19:47;;;;;;;34.17;16.73;;;;;;;7.63;100.00;101951.41;5066801;28;20048;-63
2021/10/23 05:22:17;;;;;;;36.25;17.52;;;;;;;7.55;100.00;101946.63;5069189;28;20048;-63
2021/10/23 05:24:47;;;;;;;30.02;16.13;;;;;;;7.52;100.00;101945.06;5065383;28;20368;-63
2021/10/23 05:27:15;;;;;;;33.10;15.75;;;;;;;7.59;100.00;101945.44;5067797;28;20048;-64
2021/10/23 05:29:43;;;;;;;33.72;17.85;;;;;;;7.52;100.00;101953.03;5065150;28;20714;-65
2021/10/23 05:32:11;;;;;;;32.20;16.23;;;;;;;7.59;100.00;101948.94;5066665;28;20390;-63
2021/10/23 05:34:39;;;;;;;31.92;15.73;;;;;;;7.67;100.00;101958.16;5066638;28;20048;-63
2021/10/23 05:37:06;;;;;;;33.38;17.48;;;;;;;7.64;100.00;101951.28;5066696;28;20041;-65
2021/10/23 05:39:36;;;;;;;29.48;15.88;;;;;;;7.66;100.00;101951.16;5063966;28;20045;-63
2021/10/23 05:42:04;;;;;;;31.15;14.98;;;;;;;7.59;100.00;101954.25;5068394;28;20052;-63
2021/10/23 05:44:32;;;;;;;31.85;15.52;;;;;;;7.62;100.00;101950.53;5066106;28;20044;-63
2021/10/23 05:46:59;;;;;;;30.58;15.82;;;;;;;7.55;100.00;101954.63;5068363;28;20037;-63
2021/10/23 05:49:27;;;;;;;31.13;16.67;;;;;;;7.71;100.00;101964.94;5066312;28;20459;-63
2021/10/23 05:51:55;;;;;;;35.17;16.65;;;;;;;7.81;100.00;101957.09;5066014;28;20044;-64
2021/10/23 05:54:23;;;;;;;30.70;15.73;;;;;;;7.79;100.00;101962.53;5067473;28;20398;-64
2021/10/23 05:56:53;;;;;;;30.17;15.65;;;;;;;7.75;100.00;101961.94;5068347;28;20044;-64
2021/10/23 05:59:22;;;;;;;30.35;16.02;;;;;;;7.73;100.00;101960.34;5066547;28;20040;-65
2021/10/23 06:01:58;;;;;;;27.33;14.88;;;;;;;7.64;100.00;101958.38;5069026;28;20390;-64
2021/10/23 06:04:26;;;;;;;28.80;16.63;;;;;;;7.75;100.00;101953.09;5067121;28;20410;-64
2021/10/23 06:06:54;;;;;;;33.08;15.95;;;;;;;7.65;100.00;101960.09;5067534;28;20405;-65
2021/10/23 06:09:22;;;;;;;27.48;15.65;;;;;;;7.68;100.00;101954.53;5068584;28;20106;-64
2021/10/23 06:11:50;;;;;;;32.90;16.20;;;;;;;7.70;100.00;101957.94;5066961;28;20071;-64
2021/10/23 06:14:19;;;;;;;29.50;16.02;;;;;;;7.57;100.00;101969.50;5063463;28;20475;-64
2021/10/23 06:16:47;;;;;;;26.90;14.90;;;;;;;7.43;100.00;101969.69;5068796;28;20110;-65
2021/10/23 06:19:15;;;;;;;31.27;16.55;;;;;;;7.40;100.00;101972.56;5066260;28;20071;-65
2021/10/23 06:21:43;;;;;;;29.75;16.38;;;;;;;7.45;100.00;101975.72;5065675;28;20043;-65
2021/10/23 06:24:11;;;;;;;27.20;14.38;;;;;;;7.47;100.00;101971.16;5065866;28;20041;-64
2021/10/23 06:26:38;;;;;;;31.85;17.35;;;;;;;7.46;100.00;101977.41;5065993;28;20121;-65
2021/10/23 06:29:06;;;;;;;29.63;16.02;;;;;;;7.53;100.00;101981.31;5066525;28;20036;-65
2021/10/23 06:31:36;;;;;;;29.85;15.77;;;;;;;7.51;100.00;101980.59;5067125;28;20455;-65
2021/10/23 06:34:04;;;;;;;27.85;14.57;;;;;;;7.57;100.00;101979.28;5068915;28;20037;-63
2021/10/23 06:36:32;;;;;;;32.22;15.70;;;;;;;7.66;100.00;101980.41;5064598;28;20040;-62
2021/10/23 06:39:00;;;;;;;29.92;16.52;;;;;;;7.78;100.00;101981.28;5066970;28;20443;-63
2021/10/23 06:41:30;;;;;;;27.17;15.10;;;;;;;7.68;100.00;101986.44;5065097;28;20037;-62
2021/10/23 06:43:58;;;;;;;32.97;15.38;;;;;;;7.74;100.00;101992.16;5067426;28;20044;-65
2021/10/23 06:46:26;;;;;;;26.98;15.57;;;;;;;7.78;100.00;101990.09;5068066;28;20044;-64
2021/10/23 06:48:55;;;;;;;29.20;14.95;;;;;;;7.82;100.00;101991.56;5067675;28;20369;-64
2021/10/23 06:51:23;;;;;;;26.23;15.07;;;;;;;7.81;100.00;101989.00;5066679;28;20048;-65
2021/10/23 06:53:54;;;;;;;28.02;13.98;;;;;;;7.78;100.00;101992.75;5067792;28;20052;-65
2021/10/23 06:56:22;;;;;;;31.05;14.63;;;;;;;7.75;100.00;101992.97;5065070;28;20045;-64
2021/10/23 06:58:50;;;;;;;32.95;15.68;;;;;;;7.83;100.00;101993.25;5062966;28;20424;-65
2021/10/23 07:01:18;;;;;;;28.15;16.30;;;;;;;7.85;100.00;101998.47;5063430;28;20418;-65
2021/10/23 07:03:46;;;;;;;26.20;14.95;;;;;;;7.83;100.00;101995.09;5063401;28;20036;-65
2021/10/23 07:06:16;;;;;;;29.92;16.15;;;;;;;7.80;100.00;102008.63;5065251;28;20115;-64
2021/10/23 07:08:44;;;;;;;26.70;15.35;;;;;;;7.90;100.00;102010.44;5062882;28;20363;-65
2021/10/23 07:11:12;;;;;;;29.48;15.75;;;;;;;7.90;100.00;102006.94;5059802;28;20191;-65
2021/10/23 07:13:41;;;;;;;29.77;15.98;;;;;;;7.99;100.00;102019.53;5064520;28;20048;-65
2021/10/23 07:16:10;;;;;;;31.23;17.33;;;;;;;7.95;100.00;102023.38;5064554;28;20048;-64
2021/10/23 07:18:38;;;;;;;32.10;17.10;;;;;;;7.91;100.00;102020.13;5067761;28;20339;-65
2021/10/23 07:21:06;;;;;;;26.10;15.45;;;;;;;7.96;100.00;102021.59;5064758;28;20053;-65
2021/10/23 07:23:36;;;;;;;31.08;17.02;;;;;;;7.92;100.00;102027.16;5065884;28;20098;-64
2021/10/23 07:26:04;;;;;;;32.85;16.85;;;;;;;7.99;100.00;102032.00;5067344;28;20317;-65
2021/10/23 07:28:32;;;;;;;26.10;14.85;;;;;;;8.09;100.00;102032.97;5064017;28;20199;-65
2021/10/23 07:31:00;;;;;;;29.58;16.58;;;;;;;8.03;100.00;102031.63;5063667;28;20044;-64
2021/10/23 07:33:28;;;;;;;27.60;15.88;;;;;;;7.91;100.00;102033.44;5066097;28;20060;-65
2021/10/23 07:36:00;;;;;;;30.98;16.17;;;;;;;7.95;100.00;102038.50;5066416;28;20040;-65
2021/10/23 07:38:28;;;;;;;24.90;14.25;;;;;;;7.86;100.00;102038.22;5068102;28;20049;-65
2021/10/23 07:40:58;;;;;;;28.45;15.63;;;;;;;7.74;100.00;102047.16;5064702;28;20362;-65
2021/10/23 07:43:26;;;;;;;20.85;13.40;;;;;;;7.62;100.00;102050.72;5061528;28;20048;-65
2021/10/23 07:45:54;;;;;;;32.80;14.35;;;;;;;7.74;100.00;102055.97;5065280;28;20078;-65
2021/10/23 07:48:22;;;;;;;26.10;15.50;;;;;;;7.53;100.00;102053.09;5064549;28;20443;-65
2021/10/23 07:50:50;;;;;;;30.85;16.25;;;;;;;7.57;100.00;102067.84;5063217;28;20044;-66
2021/10/23 07:53:20;;;;;;;33.33;18.27;;;;;;;7.52;100.00;102074.47;5063487;28;20329;-67
2021/10/23 07:55:48;;;;;;;34.22;16.17;;;;;;;7.58;100.00;102066.91;5047034;28;20045;-64
2021/10/23 07:58:17;;;;;;;32.17;17.30;;;;;;;7.54;100.00;102070.75;5064657;28;20053;-64
2021/10/23 08:00:45;;;;;;;35.88;17.20;;;;;;;7.57;100.00;102081.16;5062876;28;20245;-64
2021/10/23 08:03:13;;;;;;;29.92;16.95;;;;;;;7.55;100.00;102077.72;5065429;28;20412;-65
2021/10/23 08:05:41;;;;;;;30.75;17.08;;;;;;;7.60;100.00;102080.06;5066615;28;20355;-63
2021/10/23 08:08:09;;;;;;;27.77;16.83;;;;;;;7.61;100.00;102088.88;5064687;28;20232;-63
2021/10/23 08:10:39;;;;;;;33.53;16.50;;;;;;;7.53;100.00;102084.16;5063994;28;20044;-64
2021/10/23 08:13:07;;;;;;;29.60;15.85;;;;;;;7.63;100.00;102084.31;5063696;28;20040;-64
2021/10/23 08:15:37;;;;;;;26.83;14.90;;;;;;;7.64;100.00;102091.31;5065689;28;20032;-63
2021/10/23 08:18:05;;;;;;;28.13;15.77;;;;;;;7.59;100.00;102089.84;5065241;28;20597;-63
2021/10/23 08:20:34;;;;;;;28.75;14.20;;;;;;;7.79;100.00;102098.16;5061000;28;20528;-63
2021/10/23 08:23:04;;;;;;;30.13;15.70;;;;;;;7.79;100.00;102094.66;5063983;28;20045;-63
2021/10/23 08:25:34;;;;;;;28.80;16.35;;;;;;;7.78;100.00;102104.44;5066364;28;20044;-62
2021/10/23 08:28:02;;;;;;;24.98;14.25;;;;;;;7.85;100.00;102104.84;5062595;28;20056;-62
2021/10/23 08:30:30;;;;;;;28.50;14.13;;;;;;;7.81;100.00;102109.56;5060595;28;20694;-63
2021/10/23 08:33:00;;;;;;;25.35;14.45;;;;;;;7.88;100.00;102108.13;5064677;28;20044;-63
2021/10/23 08:35:28;;;;;;;28.33;16.48;;;;;;;8.11;100.00;102113.56;5064640;28;20045;-64
2021/10/23 08:37:56;;;;;;;31.08;17.08;;;;;;;8.30;100.00;102117.47;5065127;28;20044;-63
2021/10/23 08:40:24;;;;;;;25.55;13.70;;;;;;;8.42;100.00;102106.75;5062867;28;20500;-64
2021/10/23 08:42:52;;;;;;;24.75;14.13;;;;;;;8.55;100.00;102116.50;5065510;28;20044;-63
2021/10/23 08:45:21;;;;;;;21.70;13.25;;;;;;;8.66;100.00;102115.66;5065234;28;20043;-61
2021/10/23 08:47:49;;;;;;;24.33;13.52;;;;;;;8.51;100.00;102115.88;5063609;28;20051;-62
2021/10/23 08:50:21;;;;;;;22.33;12.95;;;;;;;8.52;100.00;102124.69;5063248;28;20051;-62
2021/10/23 08:52:52;;;;;;;23.55;13.95;;;;;;;8.74;100.00;102118.56;5063605;28;20097;-62
2021/10/23 08:55:20;;;;;;;24.85;13.43;;;;;;;8.83;100.00;102117.88;5065154;28;20040;-62
2021/10/23 08:57:48;;;;;;;25.30;12.75;;;;;;;9.03;100.00;102116.28;5063780;28;20352;-62
2021/10/23 09:00:17;;;;;;;19.88;12.38;;;;;;;9.41;100.00;102116.84;5062589;28;20418;-62
2021/10/23 09:02:45;;;;;;;21.42;10.82;;;;;;;9.74;100.00;102115.06;5064681;28;20055;-62
2021/10/23 09:05:14;;;;;;;21.17;10.98;;;;;;;10.32;100.00;102117.41;5061606;28;20125;-62
2021/10/23 09:07:45;;;;;;;18.52;9.73;;;;;;;10.76;100.00;102110.13;5064106;28;20048;-62
2021/10/23 09:10:13;;;;;;;15.75;9.05;;;;;;;10.97;100.00;102104.72;5066201;28;20040;-62
2021/10/23 09:12:41;;;;;;;18.92;8.43;;;;;;;10.89;100.00;102103.69;5065974;28;20052;-62
2021/10/23 09:15:12;;;;;;;12.13;8.00;;;;;;;11.41;100.00;102106.25;5069308;28;20041;-62
2021/10/23 09:17:41;;;;;;;13.02;8.05;;;;;;;11.99;100.00;102106.38;5068673;28;20060;-62
2021/10/23 09:20:11;;;;;;;14.27;7.97;;;;;;;12.42;100.00;102100.69;5066558;28;20040;-62
2021/10/23 09:22:40;;;;;;;10.65;7.18;;;;;;;11.48;100.00;102104.72;5066697;28;20051;-62
2021/10/23 09:25:19;;;;;;;12.73;7.78;;;;;;;12.23;100.00;102107.75;5068994;28;20036;-65
2021/10/23 09:27:49;;;;;;;12.48;7.07;;;;;;;12.89;100.00;102101.53;5068985;28;20048;-65
2021/10/23 09:30:19;;;;;;;9.90;6.55;;;;;;;13.05;100.00;102108.94;5066411;28;20098;-65
2021/10/23 09:32:54;;;;;;;10.43;6.30;;;;;;;12.28;100.00;102107.34;5067451;28;20040;-65
2021/10/23 09:35:27;;;;;;;9.02;6.13;;;;;;;12.19;100.00;102109.03;5065884;28;20055;-66
2021/10/23 09:37:57;;;;;;;8.43;5.93;;;;;;;13.21;100.00;102102.09;5066898;28;20526;-65
2021/10/23 09:40:28;;;;;;;12.90;6.68;;;;;;;13.40;100.00;102104.69;5068204;28;20074;-65
2021/10/23 09:43:14;;;;;;;8.95;6.00;;;;;;;13.43;100.00;102108.94;5066024;28;20055;-66
2021/10/23 09:46:11;;;;;;;9.40;5.80;;;;;;;12.66;100.00;102111.78;5068441;28;20052;-66
2021/10/23 09:48:41;;;;;;;10.35;5.47;;;;;;;12.83;100.00;102110.16;5064777;28;20258;-65
2021/10/23 09:51:11;;;;;;;9.75;5.75;;;;;;;13.56;100.00;102109.41;5064596;28;20032;-66
2021/10/23 09:53:39;;;;;;;14.70;6.57;;;;;;;12.60;100.00;102109.66;5067611;28;20051;-66
2021/10/23 09:56:09;;;;;;;10.48;5.95;;;;;;;12.24;100.00;102109.44;5065618;28;20111;-66
2021/10/23 09:58:38;;;;;;;10.48;6.63;;;;;;;12.08;100.00;102119.88;5066710;28;20059;-66
2021/10/23 10:01:06;;;;;;;12.38;6.20;;;;;;;12.49;100.00;102110.69;5064339;28;20054;-66
2021/10/23 10:03:35;;;;;;;13.40;7.93;;;;;;;12.47;100.00;102115.31;5065557;28;20041;-65
2021/10/23 10:06:03;;;;;;;10.07;6.03;;;;;;;12.52;100.00;102122.97;5066167;28;20043;-66
2021/10/23 10:08:31;;;;;;;13.65;6.65;;;;;;;13.29;100.00;102118.28;5068052;28;20033;-66
2021/10/23 10:11:00;;;;;;;9.57;6.35;;;;;;;13.18;100.00;102115.81;5066855;28;20037;-66
2021/10/23 10:13:29;;;;;;;10.38;6.15;;;;;;;12.12;100.00;102126.66;5066395;28;20048;-66
2021/10/23 10:15:59;;;;;;;9.77;6.40;;;;;;;12.12;100.00;102118.63;5066499;28;20044;-66
2021/10/23 10:18:27;;;;;;;17.15;8.02;;;;;;;12.82;100.00;102121.88;5066273;28;20357;-66
2021/10/23 10:20:57;;;;;;;11.75;6.53;;;;;;;13.01;100.00;102120.13;5065594;28;20371;-66
2021/10/23 10:23:31;;;;;;;8.75;5.47;;;;;;;12.81;100.00;102113.97;5063283;28;20387;-66
2021/10/23 10:26:32;;;;;;;13.70;7.37;;;;;;;13.32;100.00;102130.56;5064713;28;21058;-66
2021/10/23 10:29:25;;;;;;;15.27;6.03;;;;;;;13.51;100.00;102126.94;5065261;28;20294;-67
2021/10/23 10:32:00;;;;;;;10.75;6.25;;;;;;;12.68;100.00;102125.88;5067275;28;20481;-66
2021/10/23 10:34:52;;;;;;;;;;;;;;;13.63;100.00;102125.75;5064579;28;20056;-66
2021/10/23 10:43:13;;;;;;;;;;;;;;;14.16;100.00;102121.41;5058291;28;20344;-66
2021/10/23 10:46:01;;;;;;;7.10;4.25;;;;;;;13.95;100.00;102119.03;5063364;28;19920;-67
2021/10/23 10:48:44;;;;;;;6.85;3.80;;;;;;;15.24;100.00;102120.22;5067956;28;20045;-66
2021/10/23 10:51:17;;;;;;;5.32;3.15;;;;;;;14.24;100.00;102107.19;5063554;28;20044;-67
2021/10/23 10:54:04;;;;;;;5.47;4.40;;;;;;;14.04;100.00;102109.19;5063609;28;20041;-67
2021/10/23 10:56:48;;;;;;;8.80;3.75;;;;;;;14.25;100.00;102116.94;5064375;28;20037;-66
2021/10/23 10:59:55;;;;;;;6.32;3.83;;;;;;;14.38;100.00;102114.66;5062907;28;20424;-67
2021/10/23 11:02:37;;;;;;;4.22;2.90;;;;;;;15.65;100.00;102117.66;5065471;28;20233;-67
2021/10/23 11:05:21;;;;;;;6.78;3.38;;;;;;;15.13;100.00;102116.81;5064315;28;20040;-66
2021/10/23 11:08:10;;;;;;;4.13;2.35;;;;;;;14.32;100.00;102109.94;5067529;28;20037;-66
2021/10/23 11:11:05;;;;;;;4.68;3.47;;;;;;;14.33;100.00;102103.56;5063360;28;20056;-67
2021/10/23 11:13:44;;;;;;;5.55;3.92;;;;;;;14.20;100.00;102105.81;5063879;28;20048;-67
2021/10/23 11:16:25;;;;;;;6.53;3.75;;;;;;;14.19;100.00;102088.84;5067980;28;20080;-67
2021/10/23 11:18:58;;;;;;;8.18;4.60;;;;;;;13.41;100.00;102106.41;5066206;28;20044;-66
2021/10/23 11:21:27;;;;;;;3.47;2.55;;;;;;;13.35;100.00;102106.97;5063398;28;20043;-67
2021/10/23 11:23:55;;;;;;;6.75;3.20;;;;;;;13.86;100.00;102098.47;5066957;28;20243;-66
2021/10/23 11:26:23;;;;;;;6.63;2.50;;;;;;;13.59;100.00;102098.38;5067182;28;20059;-67
2021/10/23 11:28:51;;;;;;;3.35;2.20;;;;;;;13.53;100.00;102104.34;5063575;28;20227;-66